Time;durP1;ratioP1;P1;durP2;ratioP2;P2;SDS_P1;SDS_P2;PMS_P1;PMS_P2;Temp;Humidity;BMP_temperature;BMP_pressure;BME280_temperature;BME280_humidity;BME280_pressure;Samples;Min_cycle;Max_cycle;Signal;HPM_P1;HPM_P2
2022/07/08 00:01:17;;;;;;;;;;;;;;;;;;;;;
2022/07/08 00:04:05;;;;;;;0.10;0.10;;;;;;;;;;6209431;23;20047;-95
2022/07/08 00:07:18;;;;;;;0.10;0.10;;;;;;;;;;6189378;23;20087;-96
2022/07/08 00:10:33;;;;;;;0.10;0.10;;;;;;;;;;6190080;23;20449;-95
2022/07/08 00:13:49;;;;;;;0.10;0.10;;;;;;;;;;6189382;23;20042;-95
2022/07/08 00:17:05;;;;;;;0.10;0.10;;;;;;;;;;6189941;23;20127;-95
2022/07/08 00:20:22;;;;;;;0.10;0.10;;;;;;;;;;6189315;23;20036;-95
2022/07/08 12:48:05;;;;;;;0.10;0.10;;;;;;;;;;6279950;22;20023;-93
2022/07/08 12:50:31;;;;;;;0.10;0.10;;;;;;;;;;6230236;22;20333;-94
2022/07/08 12:52:58;;;;;;;0.10;0.10;;;;;;;;;;6230054;22;20007;-95
2022/07/08 12:55:43;;;;;;;0.20;0.20;;;;;;;;;;6230188;22;20451;-93
2022/07/08 12:58:27;;;;;;;0.20;0.20;;;;;;;;;;6254948;22;20147;-93
2022/07/08 13:01:13;;;;;;;0.10;0.10;;;;;;;;;;6254785;22;20023;-94
2022/07/08 13:03:58;;;;;;;0.13;0.13;;;;;;;;;;6255108;22;20054;-95
2022/07/08 13:06:43;;;;;;;0.10;0.10;;;;;;;;;;6255339;22;20455;-94
2022/07/08 13:09:28;;;;;;;0.10;0.10;;;;;;;;;;6255337;22;20062;-95
2022/07/08 13:12:14;;;;;;;0.35;0.35;;;;;;;;;;6255717;22;20022;-94
2022/07/08 13:14:59;;;;;;;0.10;0.10;;;;;;;;;;6255241;22;20018;-94
2022/07/08 13:17:44;;;;;;;0.10;0.10;;;;;;;;;;6255186;22;20328;-93
2022/07/08 13:20:32;;;;;;;0.20;0.20;;;;;;;;;;6282124;22;20108;-95
2022/07/08 13:23:16;;;;;;;0.20;0.20;;;;;;;;;;6254085;22;20011;-93
2022/07/08 13:26:01;;;;;;;0.50;0.50;;;;;;;;;;6254923;22;20093;-94
2022/07/08 13:28:46;;;;;;;0.20;0.20;;;;;;;;;;6255110;22;20015;-94
2022/07/08 13:31:33;;;;;;;0.10;0.10;;;;;;;;;;6254984;22;20034;-93
2022/07/08 13:34:22;;;;;;;0.10;0.10;;;;;;;;;;6254507;22;20007;-95
2022/07/08 13:37:07;;;;;;;0.10;0.10;;;;;;;;;;6254344;22;20012;-93
2022/07/08 13:39:55;;;;;;;0.10;0.10;;;;;;;;;;6254533;22;20015;-92
2022/07/08 13:42:40;;;;;;;0.20;0.20;;;;;;;;;;6254627;22;20021;-93
2022/07/08 13:45:25;;;;;;;0.10;0.10;;;;;;;;;;6254448;22;20026;-92
2022/07/08 13:48:10;;;;;;;0.10;0.10;;;;;;;;;;6251586;22;20077;-93
2022/07/08 13:50:55;;;;;;;0.10;0.10;;;;;;;;;;6251205;22;20098;-94
2022/07/08 13:53:41;;;;;;;0.10;0.10;;;;;;;;;;6251421;22;20391;-92
2022/07/08 13:56:26;;;;;;;0.15;0.15;;;;;;;;;;6250850;22;20028;-94
2022/07/08 13:59:10;;;;;;;0.10;0.10;;;;;;;;;;6251459;22;20749;-95
2022/07/08 14:01:55;;;;;;;0.20;0.20;;;;;;;;;;6250671;22;20027;-92
2022/07/08 14:04:40;;;;;;;0.10;0.10;;;;;;;;;;6251268;22;20016;-94
2022/07/08 14:07:25;;;;;;;0.20;0.20;;;;;;;;;;6253179;22;20027;-94
2022/07/08 14:10:10;;;;;;;0.20;0.20;;;;;;;;;;6252956;22;20468;-92
2022/07/08 14:12:55;;;;;;;0.10;0.10;;;;;;;;;;6253208;22;20329;-93
2022/07/08 14:15:40;;;;;;;0.10;0.10;;;;;;;;;;6252574;22;20023;-94
2022/07/08 14:18:26;;;;;;;0.10;0.10;;;;;;;;;;6252663;22;20031;-93
2022/07/08 14:21:11;;;;;;;0.10;0.10;;;;;;;;;;6252688;22;20099;-92
2022/07/08 14:23:56;;;;;;;0.20;0.20;;;;;;;;;;6252943;22;20073;-93
2022/07/08 14:26:41;;;;;;;0.28;0.22;;;;;;;;;;6252540;22;20073;-92
2022/07/08 14:29:26;;;;;;;0.20;0.20;;;;;;;;;;6252479;22;20130;-94
2022/07/08 14:32:11;;;;;;;0.20;0.20;;;;;;;;;;6253009;22;20428;-93
2022/07/08 14:34:56;;;;;;;0.20;0.20;;;;;;;;;;6279317;22;20049;-92
2022/07/08 14:37:41;;;;;;;0.20;0.20;;;;;;;;;;6254968;22;20027;-93
2022/07/08 14:40:26;;;;;;;0.10;0.10;;;;;;;;;;6252890;22;20098;-94
2022/07/08 14:43:11;;;;;;;2.28;0.22;;;;;;;;;;6252221;22;20557;-94
2022/07/08 14:45:57;;;;;;;0.10;0.10;;;;;;;;;;6253096;22;20019;-94
2022/07/08 14:48:42;;;;;;;0.13;0.13;;;;;;;;;;6252584;22;20298;-94
2022/07/08 14:51:27;;;;;;;0.10;0.10;;;;;;;;;;6252359;22;20452;-94
2022/07/08 14:54:12;;;;;;;0.20;0.20;;;;;;;;;;6252322;22;20027;-92
2022/07/08 14:56:56;;;;;;;0.17;0.17;;;;;;;;;;6252848;22;20024;-93
2022/07/08 14:59:41;;;;;;;0.10;0.10;;;;;;;;;;6252054;22;20440;-92
2022/07/08 15:02:27;;;;;;;0.10;0.10;;;;;;;;;;6252560;22;20115;-92
2022/07/08 15:05:11;;;;;;;0.10;0.10;;;;;;;;;;6252219;22;20031;-92
2022/07/08 15:07:56;;;;;;;0.20;0.20;;;;;;;;;;6252478;22;20098;-94
2022/07/08 15:10:41;;;;;;;0.10;0.10;;;;;;;;;;6251551;22;20023;-93
2022/07/08 15:13:27;;;;;;;0.20;0.20;;;;;;;;;;6251834;22;20046;-94
2022/07/08 15:16:12;;;;;;;0.20;0.20;;;;;;;;;;6252325;22;20112;-92
2022/07/08 15:18:38;;;;;;;0.10;0.10;;;;;;;;;;6247478;22;20024;-92
2022/07/08 15:21:04;;;;;;;0.20;0.20;;;;;;;;;;6250518;22;20448;-93
2022/07/08 15:23:30;;;;;;;0.20;0.20;;;;;;;;;;6225117;22;20012;-93
2022/07/08 15:25:57;;;;;;;0.10;0.10;;;;;;;;;;6225938;22;20016;-93
2022/07/08 15:28:26;;;;;;;0.17;0.17;;;;;;;;;;6249737;22;20104;-93
2022/07/08 15:30:52;;;;;;;0.22;0.20;;;;;;;;;;6251464;22;20015;-93
2022/07/08 15:33:19;;;;;;;0.20;0.20;;;;;;;;;;6225389;22;20314;-93
2022/07/08 15:35:45;;;;;;;0.10;0.10;;;;;;;;;;6251218;22;20023;-93
2022/07/08 15:38:11;;;;;;;0.30;0.30;;;;;;;;;;6225288;22;20466;-93
2022/07/08 15:40:37;;;;;;;0.20;0.20;;;;;;;;;;6226019;22;20012;-94
2022/07/08 15:43:03;;;;;;;0.10;0.10;;;;;;;;;;6225389;22;20090;-93
2022/07/08 15:45:31;;;;;;;0.20;0.20;;;;;;;;;;6225430;22;20016;-93
2022/07/08 15:47:57;;;;;;;0.28;0.28;;;;;;;;;;6225740;22;20353;-92
2022/07/08 15:50:44;;;;;;;0.20;0.20;;;;;;;;;;6225403;22;20039;-94
2022/07/08 15:53:28;;;;;;;0.20;0.20;;;;;;;;;;6221968;23;20012;-93
2022/07/08 15:56:18;;;;;;;0.10;0.10;;;;;;;;;;6195733;23;20023;-92
2022/07/08 15:58:58;;;;;;;0.43;0.43;;;;;;;;;;6238125;22;20103;-94
2022/07/08 16:01:41;;;;;;;0.10;0.10;;;;;;;;;;6193796;23;20349;-92
2022/07/08 16:07:11;;;;;;;0.10;0.10;;;;;;;;;;6109612;23;20392;-93
2022/07/08 16:09:53;;;;;;;0.20;0.20;;;;;;;;;;6164295;23;20016;-93
2022/07/08 16:12:23;;;;;;;;;;;;;;;;;;6140981;23;20088;-92
2022/07/08 16:15:11;;;;;;;0.20;0.20;;;;;;;;;;6164299;23;20234;-92
2022/07/08 16:17:43;;;;;;;0.10;0.10;;;;;;;;;;6164465;23;20019;-92
2022/07/08 16:20:12;;;;;;;0.10;0.10;;;;;;;;;;6165535;23;20016;-92
2022/07/08 16:23:00;;;;;;;0.10;0.10;;;;;;;;;;6138021;23;20349;-92
2022/07/08 16:25:27;;;;;;;0.10;0.10;;;;;;;;;;6141386;23;20017;-93
2022/07/08 16:27:56;;;;;;;0.30;0.30;;;;;;;;;;6166906;23;20023;-93
2022/07/08 16:30:28;;;;;;;0.10;0.10;;;;;;;;;;6141836;23;20087;-92
2022/07/08 16:33:02;;;;;;;0.20;0.20;;;;;;;;;;6142381;23;20055;-92
2022/07/08 16:35:40;;;;;;;0.10;0.10;;;;;;;;;;6143186;23;20435;-91
2022/07/08 16:38:32;;;;;;;0.17;0.17;;;;;;;;;;6128998;23;20529;-92
2022/07/08 16:41:07;;;;;;;0.10;0.10;;;;;;;;;;6143353;23;20091;-92
2022/07/08 16:43:42;;;;;;;0.10;0.10;;;;;;;;;;6143050;23;20020;-93
2022/07/08 16:46:14;;;;;;;0.10;0.10;;;;;;;;;;6171279;23;20419;-93
2022/07/08 16:48:50;;;;;;;0.15;0.15;;;;;;;;;;6148538;23;20017;-92
2022/07/08 16:51:19;;;;;;;0.10;0.10;;;;;;;;;;6169884;23;20091;-92
2022/07/08 16:54:00;;;;;;;0.20;0.20;;;;;;;;;;6144084;23;20016;-92
2022/07/08 16:56:26;;;;;;;0.10;0.10;;;;;;;;;;6146179;23;20019;-92
2022/07/08 16:58:53;;;;;;;0.15;0.15;;;;;;;;;;6175600;23;20016;-92
2022/07/08 17:01:30;;;;;;;0.25;0.20;;;;;;;;;;6172499;23;20095;-93
2022/07/08 17:03:59;;;;;;;0.20;0.20;;;;;;;;;;6194359;23;20016;-92
2022/07/08 17:06:25;;;;;;;0.10;0.10;;;;;;;;;;6194146;23;20092;-92
2022/07/08 17:08:57;;;;;;;0.10;0.10;;;;;;;;;;6169266;23;20386;-92
2022/07/08 17:11:24;;;;;;;0.20;0.20;;;;;;;;;;6169372;23;20467;-92
2022/07/08 17:17:14;;;;;;;;;;;;;;;;;;6234295;23;20027;-93
2022/07/08 17:19:41;;;;;;;0.10;0.10;;;;;;;;;;6193939;23;19946;-92
2022/07/08 17:22:07;;;;;;;0.10;0.10;;;;;;;;;;6169272;23;20127;-92
2022/07/08 17:24:33;;;;;;;0.10;0.10;;;;;;;;;;6170298;23;20030;-93
2022/07/08 17:26:59;;;;;;;0.10;0.10;;;;;;;;;;6170473;23;20054;-93
2022/07/08 17:32:10;;;;;;;0.20;0.20;;;;;;;;;;6197344;23;20013;-93
2022/07/08 17:34:38;;;;;;;0.20;0.20;;;;;;;;;;6168944;23;20050;-92
2022/07/08 17:37:04;;;;;;;0.10;0.10;;;;;;;;;;6169915;23;20012;-92
2022/07/08 17:39:30;;;;;;;0.10;0.10;;;;;;;;;;6169060;23;20066;-93
2022/07/08 17:41:56;;;;;;;0.20;0.20;;;;;;;;;;6169571;23;20506;-92
2022/07/08 17:44:22;;;;;;;0.10;0.10;;;;;;;;;;6169347;23;20065;-93
2022/07/08 17:46:48;;;;;;;0.10;0.10;;;;;;;;;;6169821;23;20012;-93
2022/07/08 17:49:14;;;;;;;0.10;0.10;;;;;;;;;;6193530;23;20055;-92
2022/07/08 17:51:40;;;;;;;0.10;0.10;;;;;;;;;;6193831;23;20012;-93
2022/07/08 17:54:07;;;;;;;0.10;0.10;;;;;;;;;;6168897;23;20086;-93
2022/07/08 17:56:33;;;;;;;0.10;0.10;;;;;;;;;;6193984;23;20016;-93
2022/07/08 17:58:59;;;;;;;0.10;0.10;;;;;;;;;;6176613;23;20023;-92
2022/07/08 18:01:25;;;;;;;0.13;0.13;;;;;;;;;;6194237;22;20495;-92
2022/07/08 18:03:51;;;;;;;0.10;0.10;;;;;;;;;;6199253;22;20035;-92
2022/07/08 18:06:19;;;;;;;0.20;0.20;;;;;;;;;;6213363;23;20027;-92
2022/07/08 18:08:45;;;;;;;0.10;0.10;;;;;;;;;;6183710;23;20020;-92
2022/07/08 18:11:12;;;;;;;0.15;0.15;;;;;;;;;;6188892;22;20142;-92
2022/07/08 18:13:38;;;;;;;0.10;0.10;;;;;;;;;;6235830;23;20016;-89
2022/07/08 18:16:05;;;;;;;0.10;0.10;;;;;;;;;;6170331;23;20070;-92
2022/07/08 18:18:31;;;;;;;0.10;0.10;;;;;;;;;;6219385;23;20008;-92
2022/07/08 18:20:57;;;;;;;0.20;0.20;;;;;;;;;;6169022;23;20010;-92
2022/07/08 18:23:23;;;;;;;0.10;0.10;;;;;;;;;;6168973;23;20013;-92
2022/07/08 18:25:49;;;;;;;0.10;0.10;;;;;;;;;;6168455;23;20012;-92
2022/07/08 18:28:15;;;;;;;0.10;0.10;;;;;;;;;;6168749;23;20015;-92
2022/07/08 18:30:42;;;;;;;0.10;0.10;;;;;;;;;;6218235;23;20016;-92
2022/07/08 18:33:08;;;;;;;0.20;0.20;;;;;;;;;;6169210;23;20036;-93
2022/07/08 18:35:34;;;;;;;0.10;0.10;;;;;;;;;;6169300;23;20023;-92
2022/07/08 18:38:00;;;;;;;0.20;0.20;;;;;;;;;;6168100;23;20091;-93
2022/07/08 18:40:26;;;;;;;0.17;0.17;;;;;;;;;;6194443;23;20016;-92
2022/07/08 18:42:53;;;;;;;0.10;0.10;;;;;;;;;;6169292;23;20016;-92
2022/07/08 18:45:19;;;;;;;0.10;0.10;;;;;;;;;;6219421;23;20212;-92
2022/07/08 18:47:49;;;;;;;0.10;0.10;;;;;;;;;;6168998;23;20020;-93
2022/07/08 18:50:15;;;;;;;0.10;0.10;;;;;;;;;;6170086;23;20062;-92
2022/07/08 18:52:41;;;;;;;0.10;0.10;;;;;;;;;;6170419;23;20020;-93
2022/07/08 18:55:07;;;;;;;0.10;0.10;;;;;;;;;;6171523;23;20078;-94
2022/07/08 18:57:33;;;;;;;0.10;0.10;;;;;;;;;;6171061;23;20383;-92
2022/07/08 18:59:59;;;;;;;0.10;0.10;;;;;;;;;;6186184;23;20104;-92
2022/07/08 19:02:26;;;;;;;0.10;0.10;;;;;;;;;;6166607;23;20051;-92
2022/07/08 19:04:52;;;;;;;0.20;0.20;;;;;;;;;;6220986;23;20063;-92
2022/07/08 19:07:19;;;;;;;0.10;0.10;;;;;;;;;;6170794;23;20039;-93
2022/07/08 19:09:46;;;;;;;0.10;0.10;;;;;;;;;;6170751;23;20016;-94
2022/07/08 19:12:13;;;;;;;0.20;0.20;;;;;;;;;;6220977;23;20013;-93
2022/07/08 19:14:39;;;;;;;0.10;0.10;;;;;;;;;;6220655;23;20341;-93
2022/07/08 19:17:05;;;;;;;0.10;0.10;;;;;;;;;;6171170;23;20022;-92
2022/07/08 19:19:32;;;;;;;0.20;0.20;;;;;;;;;;6170317;23;20016;-92
2022/07/08 19:21:58;;;;;;;0.20;0.20;;;;;;;;;;6170953;23;20020;-92
2022/07/08 19:24:24;;;;;;;0.10;0.10;;;;;;;;;;6170933;23;20461;-92
2022/07/08 19:26:50;;;;;;;0.10;0.10;;;;;;;;;;6195842;23;20016;-92
2022/07/08 19:29:16;;;;;;;0.10;0.10;;;;;;;;;;6170026;23;20101;-92
2022/07/08 19:31:42;;;;;;;0.10;0.10;;;;;;;;;;6195754;23;20090;-93
2022/07/08 19:34:08;;;;;;;0.10;0.10;;;;;;;;;;6196143;23;20012;-93
2022/07/08 19:36:34;;;;;;;0.10;0.10;;;;;;;;;;6171487;23;20018;-93
2022/07/08 19:39:03;;;;;;;0.20;0.20;;;;;;;;;;6195249;23;20016;-92
2022/07/08 19:41:29;;;;;;;0.10;0.10;;;;;;;;;;6170970;23;20023;-93
2022/07/08 19:43:55;;;;;;;0.10;0.10;;;;;;;;;;6171117;23;20093;-93
2022/07/08 19:46:24;;;;;;;0.10;0.10;;;;;;;;;;6170540;23;20019;-93
2022/07/08 19:48:53;;;;;;;0.10;0.10;;;;;;;;;;6170517;23;20012;-93
2022/07/08 19:51:22;;;;;;;0.10;0.10;;;;;;;;;;6170554;23;20373;-94
2022/07/08 19:53:48;;;;;;;0.10;0.10;;;;;;;;;;6195740;23;20012;-93
2022/07/08 19:56:17;;;;;;;0.10;0.10;;;;;;;;;;6170581;23;20087;-93
2022/07/08 19:58:43;;;;;;;0.10;0.10;;;;;;;;;;6170421;23;20027;-93
2022/07/08 20:01:13;;;;;;;0.10;0.10;;;;;;;;;;6190436;23;20013;-93
2022/07/08 20:03:48;;;;;;;0.10;0.10;;;;;;;;;;6167942;23;20019;-93
2022/07/08 20:06:19;;;;;;;0.10;0.10;;;;;;;;;;6189480;23;20099;-93
2022/07/08 20:08:44;;;;;;;0.10;0.10;;;;;;;;;;6169389;23;20357;-93
2022/07/08 20:14:10;;;;;;;0.10;0.10;;;;;;;;;;6197480;23;20052;-94
2022/07/08 20:16:36;;;;;;;0.10;0.10;;;;;;;;;;6192543;23;20051;-93
2022/07/08 20:19:05;;;;;;;0.10;0.10;;;;;;;;;;6190081;23;20016;-93
2022/07/08 20:21:31;;;;;;;0.10;0.10;;;;;;;;;;6191293;23;20012;-93
2022/07/08 20:23:58;;;;;;;0.10;0.10;;;;;;;;;;6190926;23;20012;-93
2022/07/08 20:26:24;;;;;;;0.10;0.10;;;;;;;;;;6165409;23;20024;-93
2022/07/08 20:28:52;;;;;;;0.10;0.10;;;;;;;;;;6177665;23;20017;-92
2022/07/08 20:31:19;;;;;;;0.10;0.10;;;;;;;;;;6164823;23;20090;-93
2022/07/08 20:33:44;;;;;;;0.10;0.10;;;;;;;;;;6194110;23;20095;-94
2022/07/08 20:36:10;;;;;;;0.10;0.10;;;;;;;;;;6190319;23;20032;-94
2022/07/08 20:38:36;;;;;;;0.10;0.10;;;;;;;;;;6193041;23;20088;-94
2022/07/08 20:43:50;;;;;;;0.10;0.10;;;;;;;;;;6195485;23;20528;-92
2022/07/08 20:46:19;;;;;;;0.10;0.10;;;;;;;;;;6190409;23;20012;-94
2022/07/08 20:48:46;;;;;;;0.10;0.10;;;;;;;;;;6169577;23;20020;-93
2022/07/08 20:51:12;;;;;;;0.10;0.10;;;;;;;;;;6189838;23;20012;-94
2022/07/08 20:53:38;;;;;;;0.10;0.10;;;;;;;;;;6168494;23;20008;-93
2022/07/08 20:56:04;;;;;;;0.13;0.13;;;;;;;;;;6190584;23;20020;-93
2022/07/08 20:58:30;;;;;;;0.10;0.10;;;;;;;;;;6166205;23;20056;-94
2022/07/08 21:00:56;;;;;;;0.10;0.10;;;;;;;;;;6190311;23;20437;-94
2022/07/08 21:03:22;;;;;;;0.10;0.10;;;;;;;;;;6165081;23;20048;-93
2022/07/08 21:05:48;;;;;;;0.10;0.10;;;;;;;;;;6169641;23;20094;-93
2022/07/08 21:08:14;;;;;;;0.10;0.10;;;;;;;;;;6189551;23;20008;-94
2022/07/08 21:10:40;;;;;;;0.10;0.10;;;;;;;;;;6168054;23;20020;-93
2022/07/08 21:13:06;;;;;;;0.10;0.10;;;;;;;;;;6190010;23;20012;-93
2022/07/08 21:15:33;;;;;;;0.10;0.10;;;;;;;;;;6166158;23;20008;-93
2022/07/08 21:17:59;;;;;;;0.10;0.10;;;;;;;;;;6190649;23;20040;-93
2022/07/08 21:20:25;;;;;;;0.10;0.10;;;;;;;;;;6164886;23;20013;-93
2022/07/08 21:22:51;;;;;;;0.10;0.10;;;;;;;;;;6192523;23;20040;-93
2022/07/08 21:25:17;;;;;;;0.10;0.10;;;;;;;;;;6178203;23;20456;-93
2022/07/08 21:27:43;;;;;;;0.10;0.10;;;;;;;;;;6174008;23;20064;-93
2022/07/08 21:30:09;;;;;;;0.10;0.10;;;;;;;;;;6190704;23;20067;-93
2022/07/08 21:32:35;;;;;;;0.10;0.10;;;;;;;;;;6167157;23;20327;-93
2022/07/08 21:35:02;;;;;;;0.10;0.10;;;;;;;;;;6189857;23;20052;-95
2022/07/08 21:37:28;;;;;;;0.22;0.22;;;;;;;;;;6165854;23;20019;-93
2022/07/08 21:39:54;;;;;;;0.10;0.10;;;;;;;;;;6190206;23;20013;-94
2022/07/08 21:42:20;;;;;;;0.10;0.10;;;;;;;;;;6164721;23;20019;-93
2022/07/08 21:44:47;;;;;;;0.20;0.20;;;;;;;;;;6167936;23;20020;-93
2022/07/08 21:47:13;;;;;;;0.10;0.10;;;;;;;;;;6189618;23;20019;-94
2022/07/08 21:49:39;;;;;;;0.10;0.10;;;;;;;;;;6167599;23;20020;-93
2022/07/08 21:52:05;;;;;;;0.10;0.10;;;;;;;;;;6188854;23;20091;-93
2022/07/08 21:54:33;;;;;;;0.10;0.10;;;;;;;;;;6166399;23;20013;-95
2022/07/08 21:57:00;;;;;;;0.10;0.10;;;;;;;;;;6189769;23;20020;-94
2022/07/08 21:59:26;;;;;;;0.13;0.13;;;;;;;;;;6163929;23;20504;-93
2022/07/08 22:01:53;;;;;;;0.20;0.20;;;;;;;;;;6139734;23;20457;-93
2022/07/08 22:04:20;;;;;;;0.10;0.10;;;;;;;;;;6164485;23;20024;-93
2022/07/08 22:06:46;;;;;;;0.10;0.10;;;;;;;;;;6139610;23;20066;-93
2022/07/08 22:09:12;;;;;;;0.10;0.10;;;;;;;;;;6164036;23;20059;-92
2022/07/08 22:11:38;;;;;;;0.10;0.10;;;;;;;;;;6139895;23;20016;-92
2022/07/08 22:14:04;;;;;;;0.20;0.20;;;;;;;;;;6164220;23;20523;-92
2022/07/08 22:16:33;;;;;;;0.10;0.10;;;;;;;;;;6165373;23;20461;-92
2022/07/08 22:18:59;;;;;;;0.10;0.10;;;;;;;;;;6139849;23;20362;-91
2022/07/08 22:21:25;;;;;;;0.10;0.10;;;;;;;;;;6164206;23;20044;-92
2022/07/08 22:23:51;;;;;;;0.10;0.10;;;;;;;;;;6164456;23;20048;-92
2022/07/08 22:26:17;;;;;;;0.13;0.13;;;;;;;;;;6140344;23;20438;-93
2022/07/08 22:28:43;;;;;;;0.10;0.10;;;;;;;;;;6141335;23;20096;-93
2022/07/08 22:31:09;;;;;;;0.10;0.10;;;;;;;;;;6141718;23;20031;-93
2022/07/08 22:33:35;;;;;;;0.10;0.10;;;;;;;;;;6142017;23;20063;-93
2022/07/08 22:36:01;;;;;;;0.10;0.10;;;;;;;;;;6142441;23;20012;-93
2022/07/08 22:38:27;;;;;;;0.10;0.10;;;;;;;;;;6141552;23;20012;-93
2022/07/08 22:40:53;;;;;;;0.10;0.10;;;;;;;;;;6142080;23;20009;-93
2022/07/08 22:43:19;;;;;;;0.10;0.10;;;;;;;;;;6141996;23;20016;-93
2022/07/08 22:45:45;;;;;;;0.10;0.10;;;;;;;;;;6141937;23;20017;-93
2022/07/08 22:48:12;;;;;;;0.10;0.10;;;;;;;;;;6141676;23;20020;-93
2022/07/08 22:50:38;;;;;;;0.10;0.10;;;;;;;;;;6165854;23;20062;-93
2022/07/08 22:53:04;;;;;;;0.10;0.10;;;;;;;;;;6166238;23;20088;-93
2022/07/08 22:55:30;;;;;;;0.10;0.10;;;;;;;;;;6165901;23;20009;-93
2022/07/08 22:57:56;;;;;;;0.10;0.10;;;;;;;;;;6166326;23;20015;-93
2022/07/08 23:00:22;;;;;;;0.10;0.10;;;;;;;;;;6170494;23;20521;-93
2022/07/08 23:02:48;;;;;;;0.10;0.10;;;;;;;;;;6196584;23;20047;-93
2022/07/08 23:05:14;;;;;;;0.10;0.10;;;;;;;;;;6196279;23;20027;-93
2022/07/08 23:07:40;;;;;;;0.10;0.10;;;;;;;;;;6196512;23;20035;-93
2022/07/08 23:10:06;;;;;;;0.10;0.10;;;;;;;;;;6195051;23;20433;-92
2022/07/08 23:12:32;;;;;;;0.15;0.15;;;;;;;;;;6196117;23;20019;-93
2022/07/08 23:14:58;;;;;;;0.10;0.10;;;;;;;;;;6195886;23;20015;-93
2022/07/08 23:17:24;;;;;;;1.33;0.30;;;;;;;;;;6196542;23;20051;-93
2022/07/08 23:19:50;;;;;;;0.10;0.10;;;;;;;;;;6195577;23;20023;-94
2022/07/08 23:22:16;;;;;;;0.10;0.10;;;;;;;;;;6195830;23;20016;-94
2022/07/08 23:24:43;;;;;;;0.10;0.10;;;;;;;;;;6196277;23;20019;-93
2022/07/08 23:27:09;;;;;;;0.10;0.10;;;;;;;;;;6221236;23;20036;-94
2022/07/08 23:29:38;;;;;;;0.17;0.17;;;;;;;;;;6221929;23;20444;-94
2022/07/08 23:32:07;;;;;;;0.10;0.10;;;;;;;;;;6196248;23;20071;-93
2022/07/08 23:34:33;;;;;;;0.10;0.10;;;;;;;;;;6222728;23;20062;-93
2022/07/08 23:36:59;;;;;;;0.10;0.10;;;;;;;;;;6197602;23;20334;-94
2022/07/08 23:39:25;;;;;;;0.10;0.10;;;;;;;;;;6196296;23;20449;-94
2022/07/08 23:41:51;;;;;;;0.10;0.10;;;;;;;;;;6196055;23;20094;-93
2022/07/08 23:44:17;;;;;;;0.10;0.10;;;;;;;;;;6196498;23;20016;-94
2022/07/08 23:46:44;;;;;;;0.10;0.10;;;;;;;;;;6196164;23;20051;-94
2022/07/08 23:49:10;;;;;;;0.10;0.10;;;;;;;;;;6220487;23;20372;-94
2022/07/08 23:51:36;;;;;;;0.10;0.10;;;;;;;;;;6195192;23;20322;-94
2022/07/08 23:54:02;;;;;;;0.10;0.10;;;;;;;;;;6195365;23;20080;-93
2022/07/08 23:56:29;;;;;;;0.10;0.10;;;;;;;;;;6195700;23;20084;-93
2022/07/08 23:58:55;;;;;;;0.10;0.10;;;;;;;;;;6189506;23;20024;-93
